createdAt,value
2023-02-28T00:01:51.498Z,4.10
2023-02-28T00:04:20.747Z,2.47
2023-02-28T00:06:49.828Z,4.25
2023-02-28T00:09:19.111Z,4.13
2023-02-28T00:11:49.569Z,3.45
2023-02-28T00:14:18.738Z,3.65
2023-02-28T00:16:49.447Z,5.07
2023-02-28T00:19:18.788Z,2.70
2023-02-28T00:21:48.066Z,3.45
2023-02-28T00:24:17.474Z,3.97
2023-02-28T00:26:46.593Z,6.60
2023-02-28T00:29:18.476Z,2.70
2023-02-28T00:31:49.630Z,3.67
2023-02-28T00:34:18.809Z,10.43
2023-02-28T00:36:50.878Z,5.85
2023-02-28T00:39:20.186Z,2.20
2023-02-28T00:41:49.877Z,9.93
2023-02-28T00:44:19.103Z,2.53
2023-02-28T00:46:49.496Z,2.90
2023-02-28T00:49:18.889Z,3.38
2023-02-28T00:51:47.885Z,2.05
2023-02-28T00:54:17.058Z,6.53
2023-02-28T00:56:46.931Z,3.22
2023-02-28T00:59:16.126Z,4.22
2023-02-28T01:01:45.523Z,4.85
2023-02-28T01:04:16.961Z,3.95
2023-02-28T01:06:46.202Z,5.20
2023-02-28T01:09:15.694Z,4.38
2023-02-28T01:11:45.675Z,4.45
2023-02-28T01:14:16.032Z,5.63
2023-02-28T01:16:45.400Z,2.78
2023-02-28T01:19:16.224Z,4.35
2023-02-28T01:21:45.506Z,2.22
2023-02-28T01:24:15.551Z,4.32
2023-02-28T01:26:44.737Z,4.13
2023-02-28T01:29:13.751Z,5.45
2023-02-28T01:31:43.122Z,4.25
2023-02-28T01:34:12.393Z,4.60
2023-02-28T01:36:43.088Z,3.90
2023-02-28T01:39:13.715Z,10.55
2023-02-28T01:41:42.905Z,3.40
2023-02-28T01:44:30.364Z,4.00
2023-02-28T01:46:59.722Z,4.72
2023-02-28T01:49:28.946Z,3.35
2023-02-28T01:51:59.841Z,6.22
2023-02-28T01:54:29.977Z,9.90
2023-02-28T01:57:02.777Z,4.70
2023-02-28T01:59:34.893Z,4.72
2023-02-28T02:02:05.109Z,3.60
2023-02-28T02:04:38.329Z,7.15
2023-02-28T02:07:09.111Z,4.78
2023-02-28T02:09:38.519Z,3.75
2023-02-28T02:12:13.737Z,4.10
2023-02-28T02:14:49.078Z,6.13
2023-02-28T02:17:22.180Z,6.63
2023-02-28T02:20:04.892Z,5.65
2023-02-28T02:22:50.396Z,5.18
2023-02-28T02:25:24.981Z,8.98
2023-02-28T02:28:24.976Z,4.18
2023-02-28T02:31:06.608Z,5.53
2023-02-28T02:34:04.164Z,7.00
2023-02-28T02:36:36.146Z,5.50
2023-02-28T02:39:07.790Z,7.18
2023-02-28T02:41:39.921Z,5.47
2023-02-28T02:44:13.445Z,6.03
2023-02-28T02:46:44.174Z,4.65
2023-02-28T02:49:18.616Z,5.95
2023-02-28T02:51:49.545Z,10.00
2023-02-28T02:54:20.516Z,8.75
2023-02-28T02:56:50.707Z,4.63
2023-02-28T02:59:22.253Z,4.22
2023-02-28T03:01:53.493Z,4.53
2023-02-28T03:04:24.274Z,3.87
2023-02-28T03:06:56.322Z,8.38
2023-02-28T03:09:26.326Z,5.55
2023-02-28T03:11:57.423Z,7.47
2023-02-28T03:14:30.068Z,3.78
2023-02-28T03:17:06.176Z,6.68
2023-02-28T03:19:40.759Z,7.20
2023-02-28T03:22:18.746Z,5.70
2023-02-28T03:24:53.161Z,8.07
2023-02-28T03:27:26.229Z,6.80
2023-02-28T03:29:57.663Z,6.63
2023-02-28T03:32:29.150Z,4.50
2023-02-28T03:35:04.719Z,7.18
2023-02-28T03:37:36.882Z,8.38
2023-02-28T03:40:09.456Z,5.13
2023-02-28T03:42:40.889Z,6.32
2023-02-28T03:45:14.853Z,6.25
2023-02-28T03:47:46.884Z,2.65
2023-02-28T03:50:19.366Z,6.03
2023-02-28T03:52:52.169Z,6.38
2023-02-28T03:55:21.762Z,5.05
2023-02-28T03:57:57.710Z,6.55
2023-02-28T04:00:30.790Z,10.35
2023-02-28T04:03:00.530Z,5.93
2023-02-28T04:05:29.724Z,6.57
2023-02-28T04:08:07.349Z,4.53
2023-02-28T04:10:36.664Z,5.63
2023-02-28T04:13:05.901Z,4.15
2023-02-28T04:15:35.213Z,11.00
2023-02-28T04:18:04.707Z,5.07
2023-02-28T04:20:33.773Z,7.78
2023-02-28T04:23:02.921Z,3.92
2023-02-28T04:25:33.397Z,6.43
2023-02-28T04:28:02.944Z,7.23
2023-02-28T04:30:33.516Z,3.25
2023-02-28T04:33:03.645Z,8.02
2023-02-28T04:35:33.164Z,7.72
2023-02-28T04:38:02.456Z,5.80
2023-02-28T04:40:33.439Z,6.07
2023-02-28T04:43:04.456Z,3.63
2023-02-28T04:45:34.901Z,5.60
2023-02-28T04:48:03.897Z,5.38
2023-02-28T04:50:32.853Z,6.93
2023-02-28T04:53:02.016Z,7.15
2023-02-28T04:55:32.724Z,6.88
2023-02-28T04:58:02.250Z,5.40
2023-02-28T05:00:31.607Z,5.47
2023-02-28T05:03:00.556Z,6.70
2023-02-28T05:05:29.537Z,6.75
2023-02-28T05:07:58.675Z,6.30
2023-02-28T05:10:27.620Z,7.35
2023-02-28T05:12:58.093Z,7.15
2023-02-28T05:15:27.431Z,2.95
2023-02-28T05:17:56.438Z,7.28
2023-02-28T05:20:25.583Z,9.02
2023-02-28T05:22:54.659Z,4.22
2023-02-28T05:25:24.155Z,6.13
2023-02-28T05:27:53.543Z,5.80
2023-02-28T05:30:24.563Z,6.88
2023-02-28T05:32:54.288Z,4.43
2023-02-28T05:35:23.608Z,4.03
2023-02-28T05:37:52.631Z,9.20
2023-02-28T05:40:22.461Z,7.70
2023-02-28T05:42:53.444Z,4.97
2023-02-28T05:45:24.399Z,8.68
2023-02-28T05:47:56.428Z,5.50
2023-02-28T05:50:25.478Z,10.70
2023-02-28T05:52:54.693Z,6.63
2023-02-28T05:55:23.846Z,7.25
2023-02-28T05:57:53.179Z,5.80
2023-02-28T06:00:24.875Z,9.52
2023-02-28T06:05:26.621Z,5.93
2023-02-28T06:07:55.621Z,4.38
2023-02-28T06:10:24.734Z,4.43
2023-02-28T06:12:54.046Z,7.85
2023-02-28T06:15:24.509Z,7.47
2023-02-28T06:17:53.553Z,11.82
2023-02-28T06:20:22.601Z,6.18
2023-02-28T06:22:52.851Z,8.52
2023-02-28T06:25:22.569Z,8.10
2023-02-28T06:27:52.017Z,9.00
2023-02-28T06:30:30.169Z,12.48
2023-02-28T06:33:00.844Z,8.07
2023-02-28T06:35:30.472Z,7.18
2023-02-28T06:38:00.848Z,11.05
2023-02-28T06:40:33.109Z,12.82
2023-02-28T06:43:02.357Z,6.78
2023-02-28T06:45:32.545Z,6.35
2023-02-28T06:48:02.987Z,6.20
2023-02-28T06:50:33.580Z,6.82
2023-02-28T06:53:02.745Z,12.15
2023-02-28T06:55:32.006Z,11.60
2023-02-28T06:58:01.240Z,9.75
2023-02-28T07:00:30.866Z,10.82
2023-02-28T07:03:01.007Z,9.35
2023-02-28T07:05:31.349Z,12.77
2023-02-28T07:08:00.844Z,6.30
2023-02-28T07:10:30.356Z,11.50
2023-02-28T07:12:59.259Z,9.68
2023-02-28T07:15:28.659Z,8.98
2023-02-28T07:17:58.491Z,8.45
2023-02-28T07:20:27.673Z,7.78
2023-02-28T07:22:58.083Z,7.50
2023-02-28T07:25:27.937Z,7.50
2023-02-28T07:27:57.403Z,11.20
2023-02-28T07:30:26.328Z,8.05
2023-02-28T07:32:57.140Z,6.72
2023-02-28T07:35:26.323Z,7.95
2023-02-28T07:37:55.519Z,7.93
2023-02-28T07:40:25.962Z,6.35
2023-02-28T07:42:57.641Z,6.32
2023-02-28T07:45:26.682Z,5.97
2023-02-28T07:47:55.889Z,7.55
2023-02-28T07:50:27.039Z,5.32
2023-02-28T07:52:56.179Z,10.27
2023-02-28T07:55:26.950Z,6.13
2023-02-28T07:57:56.212Z,10.33
2023-02-28T08:00:25.956Z,4.55
2023-02-28T08:02:55.093Z,6.43
2023-02-28T08:05:24.167Z,5.13
2023-02-28T08:07:54.319Z,7.45
2023-02-28T08:10:23.643Z,9.40
2023-02-28T08:12:54.158Z,4.45
2023-02-28T08:15:23.143Z,4.35
2023-02-28T08:17:52.372Z,5.07
2023-02-28T08:20:21.638Z,6.47
2023-02-28T08:22:50.709Z,4.00
2023-02-28T08:25:19.963Z,7.50
2023-02-28T08:27:48.959Z,4.13
2023-02-28T08:30:19.580Z,5.20
2023-02-28T08:32:48.589Z,3.65
2023-02-28T08:35:17.746Z,3.30
2023-02-28T08:37:46.797Z,2.75
2023-02-28T08:40:19.117Z,2.33
2023-02-28T08:42:48.610Z,5.57
2023-02-28T08:45:19.064Z,3.25
2023-02-28T08:47:48.117Z,4.55
2023-02-28T08:50:17.579Z,2.83
2023-02-28T08:52:46.518Z,2.00
2023-02-28T08:55:15.635Z,5.07
2023-02-28T08:57:44.944Z,5.63
2023-02-28T09:00:15.305Z,4.00
2023-02-28T09:02:47.080Z,2.75
2023-02-28T09:05:16.198Z,3.05
2023-02-28T09:07:45.199Z,3.55
2023-02-28T09:10:14.383Z,2.00
2023-02-28T09:12:43.708Z,2.05
2023-02-28T09:15:13.438Z,3.38
2023-02-28T09:17:43.353Z,1.73
2023-02-28T09:20:15.367Z,2.57
2023-02-28T09:22:44.481Z,2.85
2023-02-28T09:25:14.198Z,1.45
2023-02-28T09:27:44.166Z,4.00
2023-02-28T09:30:14.114Z,1.98
2023-02-28T09:32:43.267Z,2.58
2023-02-28T09:35:14.384Z,2.85
2023-02-28T09:37:44.752Z,2.80
2023-02-28T09:40:15.644Z,3.03
2023-02-28T09:42:45.311Z,8.50
2023-02-28T09:45:19.058Z,3.83
2023-02-28T09:47:49.213Z,4.40
2023-02-28T09:50:24.848Z,3.40
2023-02-28T09:52:55.899Z,2.33
2023-02-28T09:55:32.742Z,3.63
2023-02-28T09:58:05.518Z,4.57
2023-02-28T10:00:36.360Z,3.58
2023-02-28T10:03:18.135Z,3.72
2023-02-28T10:05:53.908Z,7.53
2023-02-28T10:08:27.069Z,6.18
2023-02-28T10:10:58.246Z,2.83
2023-02-28T10:13:29.918Z,1.75
2023-02-28T10:16:01.736Z,2.83
2023-02-28T10:18:33.954Z,3.22
2023-02-28T10:21:03.059Z,1.65
2023-02-28T10:23:37.170Z,7.05
2023-02-28T10:26:12.847Z,3.35
2023-02-28T10:28:42.552Z,3.28
2023-02-28T10:31:14.261Z,2.70
2023-02-28T10:33:46.137Z,1.70
2023-02-28T10:36:18.437Z,1.75
2023-02-28T10:38:49.759Z,3.42
2023-02-28T10:41:29.602Z,3.30
2023-02-28T10:44:21.095Z,2.70
2023-02-28T10:46:51.679Z,4.03
2023-02-28T10:49:23.019Z,3.85
2023-02-28T10:51:53.547Z,2.95
2023-02-28T10:54:25.865Z,6.90
2023-02-28T10:57:09.515Z,3.65
2023-02-28T10:59:38.537Z,9.45
2023-02-28T11:02:31.428Z,6.93
2023-02-28T11:05:00.409Z,4.38
2023-02-28T11:07:37.428Z,3.92
2023-02-28T11:10:21.120Z,5.90
2023-02-28T11:12:53.261Z,4.65
2023-02-28T11:15:26.366Z,3.60
2023-02-28T11:18:00.358Z,2.05
2023-02-28T11:20:30.891Z,10.75
2023-02-28T11:23:01.937Z,4.65
2023-02-28T11:25:33.681Z,8.43
2023-02-28T11:28:05.643Z,9.32
2023-02-28T11:30:36.222Z,4.35
2023-02-28T11:33:22.021Z,4.43
2023-02-28T11:35:52.541Z,3.15
2023-02-28T11:38:21.730Z,4.85
2023-02-28T11:40:58.739Z,2.92
2023-02-28T11:43:34.405Z,1.45
2023-02-28T11:46:09.512Z,3.75
2023-02-28T11:48:44.388Z,3.35
2023-02-28T11:51:18.174Z,5.00
2023-02-28T11:54:03.462Z,4.20
2023-02-28T11:56:36.390Z,2.55
2023-02-28T11:59:13.171Z,2.60
2023-02-28T12:01:50.032Z,1.73
2023-02-28T12:04:24.681Z,3.33
2023-02-28T12:06:58.441Z,2.78
2023-02-28T12:09:44.080Z,3.28
2023-02-28T12:12:23.864Z,7.35
2023-02-28T12:15:00.354Z,7.55
2023-02-28T12:17:44.815Z,3.38
2023-02-28T12:20:21.022Z,4.85
2023-02-28T12:22:53.793Z,4.97
2023-02-28T12:25:44.480Z,2.90
2023-02-28T12:28:15.650Z,2.40
2023-02-28T12:30:49.098Z,3.33
2023-02-28T12:33:19.685Z,5.20
2023-02-28T12:35:51.558Z,1.85
2023-02-28T12:38:22.627Z,1.88
2023-02-28T12:40:55.091Z,3.58
2023-02-28T12:43:28.381Z,1.77
2023-02-28T12:45:59.849Z,2.67
2023-02-28T12:48:33.454Z,2.40
2023-02-28T12:51:03.643Z,4.18
2023-02-28T12:53:38.553Z,2.55
2023-02-28T12:56:13.866Z,2.50
2023-02-28T12:58:46.507Z,2.47
2023-02-28T13:01:32.106Z,1.05
2023-02-28T13:04:10.424Z,1.77
2023-02-28T13:06:48.904Z,1.88
2023-02-28T13:09:18.721Z,3.17
2023-02-28T13:11:48.651Z,1.67
2023-02-28T13:14:28.985Z,2.53
2023-02-28T13:17:00.231Z,1.50
2023-02-28T13:19:32.555Z,2.63
2023-02-28T13:22:01.967Z,2.05
2023-02-28T13:24:42.462Z,1.58
2023-02-28T13:27:25.603Z,2.10
2023-02-28T13:29:56.172Z,1.65
2023-02-28T13:32:45.191Z,6.28
2023-02-28T13:35:32.715Z,1.50
2023-02-28T13:38:18.909Z,1.30
2023-02-28T13:40:48.066Z,3.45
2023-02-28T13:43:27.901Z,1.02
2023-02-28T13:46:11.125Z,2.45
2023-02-28T13:48:41.585Z,1.55
2023-02-28T13:51:33.571Z,1.20
2023-02-28T13:54:05.860Z,5.38
2023-02-28T13:59:08.949Z,1.63
2023-02-28T14:01:44.067Z,2.00
2023-02-28T14:04:37.940Z,1.10
2023-02-28T14:07:07.289Z,2.25
2023-02-28T14:09:37.772Z,2.65
2023-02-28T14:12:26.842Z,1.42
2023-02-28T14:14:58.326Z,2.22
2023-02-28T14:17:29.156Z,0.80
2023-02-28T14:20:00.449Z,1.88
2023-02-28T14:22:43.958Z,1.92
2023-02-28T14:25:19.631Z,1.60
2023-02-28T14:27:52.129Z,2.03
2023-02-28T14:30:45.674Z,2.08
2023-02-28T14:33:23.106Z,1.05
2023-02-28T14:36:07.425Z,2.22
2023-02-28T14:38:39.940Z,3.63
2023-02-28T14:41:15.310Z,2.15
2023-02-28T14:43:51.031Z,2.50
2023-02-28T14:46:21.023Z,1.48
2023-02-28T14:48:52.459Z,1.70
2023-02-28T14:51:22.893Z,2.03
2023-02-28T14:53:54.222Z,1.13
2023-02-28T14:56:27.208Z,2.63
2023-02-28T14:58:57.507Z,1.65
2023-02-28T15:01:27.872Z,2.00
2023-02-28T15:04:03.938Z,3.22
2023-02-28T15:06:33.883Z,1.75
2023-02-28T15:09:10.768Z,0.98
2023-02-28T15:11:40.190Z,2.08
2023-02-28T15:14:10.080Z,1.05
2023-02-28T15:16:40.646Z,0.90
2023-02-28T15:19:16.658Z,1.35
2023-02-28T15:21:47.964Z,1.85
2023-02-28T15:24:24.695Z,1.25
2023-02-28T15:26:56.104Z,1.10
2023-02-28T15:29:26.428Z,5.13
2023-02-28T15:31:59.565Z,1.10
2023-02-28T15:34:42.614Z,2.35
2023-02-28T15:37:31.102Z,1.00
2023-02-28T15:40:07.035Z,1.95
2023-02-28T15:42:36.661Z,1.35
2023-02-28T15:45:06.699Z,1.50
2023-02-28T15:47:36.235Z,0.68
2023-02-28T15:50:14.110Z,0.82
2023-02-28T15:52:45.311Z,2.35
2023-02-28T15:55:19.517Z,2.83
2023-02-28T15:57:51.160Z,0.93
2023-02-28T16:00:23.184Z,0.68
2023-02-28T16:05:29.012Z,0.93
2023-02-28T16:07:58.382Z,1.15
2023-02-28T16:10:28.569Z,0.90
2023-02-28T16:12:58.827Z,2.33
2023-02-28T16:15:29.650Z,2.33
2023-02-28T16:17:59.864Z,2.17
2023-02-28T16:20:31.387Z,2.13
2023-02-28T16:23:02.599Z,1.05
2023-02-28T16:25:36.039Z,2.72
2023-02-28T16:28:05.407Z,4.05
2023-02-28T16:30:34.396Z,1.52
2023-02-28T16:33:04.054Z,2.35
2023-02-28T16:35:34.357Z,1.55
2023-02-28T16:38:03.327Z,1.55
2023-02-28T16:40:36.045Z,2.65
2023-02-28T16:43:09.497Z,2.40
2023-02-28T16:45:39.923Z,2.22
2023-02-28T16:48:11.176Z,1.42
2023-02-28T16:50:41.898Z,1.30
2023-02-28T16:53:11.292Z,4.28
2023-02-28T16:55:40.886Z,1.20
2023-02-28T16:58:16.077Z,2.78
2023-02-28T17:00:46.508Z,1.13
2023-02-28T17:03:32.000Z,1.02
2023-02-28T17:06:03.572Z,2.30
2023-02-28T17:08:33.267Z,2.50
2023-02-28T17:11:03.443Z,1.88
2023-02-28T17:13:33.685Z,2.47
2023-02-28T17:16:03.273Z,0.45
2023-02-28T17:18:34.820Z,0.70
2023-02-28T17:21:05.620Z,0.70
2023-02-28T17:23:34.958Z,1.55
2023-02-28T17:26:06.553Z,0.30
2023-02-28T17:28:35.794Z,1.00
2023-02-28T17:31:04.855Z,1.95
2023-02-28T17:33:34.649Z,1.85
2023-02-28T17:36:08.336Z,0.55
2023-02-28T17:38:37.677Z,4.10
2023-02-28T17:41:07.584Z,0.70
2023-02-28T17:43:36.878Z,1.10
2023-02-28T17:46:07.355Z,1.40
2023-02-28T17:48:38.900Z,0.80
2023-02-28T17:51:29.258Z,2.90
2023-02-28T17:53:58.815Z,2.33
2023-02-28T17:56:29.351Z,1.35
2023-02-28T17:58:59.545Z,1.47
2023-02-28T18:01:29.800Z,1.48
2023-02-28T18:03:59.092Z,1.48
2023-02-28T18:06:35.604Z,1.08
2023-02-28T18:09:05.939Z,0.90
2023-02-28T18:11:45.738Z,1.55
2023-02-28T18:14:15.438Z,0.70
2023-02-28T18:16:45.225Z,1.00
2023-02-28T18:19:17.271Z,0.90
2023-02-28T18:24:17.349Z,0.40
2023-02-28T18:26:46.321Z,1.38
2023-02-28T18:29:18.697Z,1.48
2023-02-28T18:31:49.080Z,1.27
2023-02-28T18:34:18.914Z,1.80
2023-02-28T18:36:48.526Z,1.25
2023-02-28T18:39:18.917Z,1.80
2023-02-28T18:41:47.968Z,1.38
2023-02-28T18:44:20.935Z,1.25
2023-02-28T18:46:51.919Z,1.42
2023-02-28T18:49:20.954Z,4.03
2023-02-28T18:51:49.966Z,4.63
2023-02-28T18:54:20.704Z,5.63
2023-02-28T18:56:50.886Z,5.57
2023-02-28T18:59:19.946Z,2.55
2023-02-28T19:01:48.888Z,2.33
2023-02-28T19:04:18.256Z,1.27
2023-02-28T19:06:47.224Z,1.48
2023-02-28T19:09:16.250Z,1.02
2023-02-28T19:11:46.641Z,1.05
2023-02-28T19:14:15.767Z,3.40
2023-02-28T19:16:45.205Z,7.38
2023-02-28T19:19:15.402Z,1.23
2023-02-28T19:21:44.557Z,2.85
2023-02-28T19:24:14.406Z,1.40
2023-02-28T19:26:43.361Z,1.08
2023-02-28T19:29:14.213Z,2.38
2023-02-28T19:31:43.330Z,5.20
2023-02-28T19:34:12.265Z,0.88
2023-02-28T19:36:41.178Z,1.20
2023-02-28T19:39:10.324Z,1.40
2023-02-28T19:41:39.278Z,1.13
2023-02-28T19:44:08.435Z,1.98
2023-02-28T19:46:38.946Z,1.92
2023-02-28T19:49:07.991Z,2.17
2023-02-28T19:51:38.284Z,1.65
2023-02-28T19:54:07.504Z,2.78
2023-02-28T19:56:36.774Z,4.95
2023-02-28T19:59:12.859Z,1.17
2023-02-28T20:01:54.568Z,4.93
2023-02-28T20:04:23.708Z,2.13
2023-02-28T20:06:52.933Z,5.35
2023-02-28T20:09:22.094Z,8.70
2023-02-28T20:11:51.225Z,5.75
2023-02-28T20:14:20.385Z,10.65
2023-02-28T20:16:49.680Z,10.18
2023-02-28T20:19:20.889Z,12.68
2023-02-28T20:21:50.517Z,9.10
2023-02-28T20:24:25.824Z,10.63
2023-02-28T20:26:55.227Z,7.90
2023-02-28T20:29:24.460Z,12.13
2023-02-28T20:31:53.586Z,9.93
2023-02-28T20:34:25.387Z,10.57
2023-02-28T20:36:56.779Z,12.38
2023-02-28T20:39:26.429Z,11.68
2023-02-28T20:41:55.394Z,9.02
2023-02-28T20:44:25.812Z,7.40
2023-02-28T20:46:54.873Z,9.05
2023-02-28T20:49:25.380Z,10.80
2023-02-28T20:51:54.640Z,11.95
2023-02-28T20:54:24.052Z,10.75
2023-02-28T20:56:53.349Z,12.52
2023-02-28T20:59:22.735Z,9.10
2023-02-28T21:01:52.277Z,10.75
2023-02-28T21:04:21.892Z,9.18
2023-02-28T21:06:54.893Z,10.80
2023-02-28T21:09:24.310Z,10.57
2023-02-28T21:11:55.242Z,10.10
2023-02-28T21:14:25.386Z,10.25
2023-02-28T21:16:54.568Z,10.32
2023-02-28T21:19:23.661Z,9.05
2023-02-28T21:21:56.077Z,8.98
2023-02-28T21:24:25.129Z,9.15
2023-02-28T21:26:56.801Z,11.07
2023-02-28T21:29:26.024Z,13.07
2023-02-28T21:31:55.101Z,10.80
2023-02-28T21:34:24.500Z,7.40
2023-02-28T21:36:54.989Z,8.98
2023-02-28T21:39:26.267Z,10.20
2023-02-28T21:41:56.904Z,9.63
2023-02-28T21:44:28.132Z,7.65
2023-02-28T21:46:58.128Z,6.95
2023-02-28T21:49:27.464Z,8.77
2023-02-28T21:51:58.937Z,3.88
2023-02-28T21:54:27.921Z,3.28
2023-02-28T21:56:57.409Z,8.20
2023-02-28T21:59:26.591Z,5.15
2023-02-28T22:01:55.776Z,6.25
2023-02-28T22:04:24.786Z,5.63
2023-02-28T22:06:54.995Z,7.68
2023-02-28T22:09:25.845Z,4.38
2023-02-28T22:11:54.908Z,5.00
2023-02-28T22:14:24.163Z,7.30
2023-02-28T22:16:55.215Z,5.78
2023-02-28T22:19:26.547Z,5.75
2023-02-28T22:21:57.265Z,5.38
2023-02-28T22:24:28.005Z,6.50
2023-02-28T22:26:57.104Z,8.23
2023-02-28T22:29:26.825Z,9.07
2023-02-28T22:31:55.956Z,7.18
2023-02-28T22:34:25.000Z,9.20
2023-02-28T22:36:54.375Z,7.00
2023-02-28T22:39:23.521Z,6.65
2023-02-28T22:41:56.170Z,8.45
2023-02-28T22:44:25.322Z,9.77
2023-02-28T22:46:55.221Z,9.18
2023-02-28T22:49:25.069Z,6.68
2023-02-28T22:51:54.304Z,8.20
2023-02-28T22:54:23.302Z,11.75
2023-02-28T22:56:53.859Z,9.77
2023-02-28T22:59:23.412Z,9.30
2023-02-28T23:01:52.498Z,12.88
2023-02-28T23:04:21.417Z,10.68
2023-02-28T23:06:50.537Z,10.75
2023-02-28T23:09:22.179Z,9.50
2023-02-28T23:11:52.417Z,9.45
2023-02-28T23:14:23.342Z,12.25
2023-02-28T23:16:54.026Z,12.73
2023-02-28T23:19:26.736Z,14.52
2023-02-28T23:21:56.250Z,10.30
2023-02-28T23:24:26.521Z,14.02
2023-02-28T23:26:57.590Z,10.93
2023-02-28T23:29:28.645Z,11.07
2023-02-28T23:31:58.534Z,10.55
2023-02-28T23:34:30.430Z,11.07
2023-02-28T23:37:00.792Z,10.82
2023-02-28T23:39:31.322Z,9.63
2023-02-28T23:42:02.632Z,11.90
2023-02-28T23:44:33.311Z,11.38
2023-02-28T23:47:02.262Z,17.20
2023-02-28T23:49:31.287Z,12.25
2023-02-28T23:52:00.320Z,16.40
2023-02-28T23:54:29.820Z,13.35
2023-02-28T23:56:58.926Z,14.70
2023-02-28T23:59:28.017Z,15.43
